createdAt,value
2022-08-25T00:00:06.466Z,11.00
2022-08-25T00:01:24.187Z,10.00
2022-08-25T00:02:31.053Z,9.60
2022-08-25T00:03:39.787Z,8.70
2022-08-25T00:04:53.728Z,9.30
2022-08-25T00:05:57.359Z,10.00
2022-08-25T00:07:04.245Z,10.00
2022-08-25T00:08:08.817Z,12.90
2022-08-25T00:09:22.938Z,10.90
2022-08-25T00:10:26.658Z,9.00
2022-08-25T00:11:34.565Z,8.70
2022-08-25T00:12:40.425Z,10.90
2022-08-25T00:13:49.793Z,9.30
2022-08-25T00:14:53.392Z,9.50
2022-08-25T00:15:56.876Z,11.70
2022-08-25T00:17:00.383Z,11.50
2022-08-25T00:18:16.950Z,10.40
2022-08-25T00:19:27.197Z,10.20
2022-08-25T00:20:32.437Z,13.60
2022-08-25T00:21:36.122Z,11.60
2022-08-25T00:22:39.687Z,13.40
2022-08-25T00:23:43.893Z,13.70
2022-08-25T00:24:49.268Z,11.40
2022-08-25T00:25:52.420Z,10.80
2022-08-25T00:26:58.221Z,11.70
2022-08-25T00:28:05.201Z,10.30
2022-08-25T00:29:11.710Z,11.70
2022-08-25T00:30:16.872Z,8.90
2022-08-25T00:31:23.653Z,9.80
2022-08-25T00:32:41.133Z,9.30
2022-08-25T00:33:46.366Z,12.10
2022-08-25T00:34:49.406Z,11.80
2022-08-25T00:35:52.999Z,9.70
2022-08-25T00:36:56.919Z,10.00
2022-08-25T00:37:59.924Z,9.60
2022-08-25T00:39:04.447Z,9.30
2022-08-25T00:40:08.369Z,11.90
2022-08-25T00:41:16.343Z,9.70
2022-08-25T00:42:21.183Z,12.00
2022-08-25T00:43:25.409Z,14.00
2022-08-25T00:44:32.252Z,13.70
2022-08-25T00:45:35.737Z,14.00
2022-08-25T00:46:43.963Z,18.20
2022-08-25T00:47:47.301Z,15.30
2022-08-25T00:48:59.496Z,13.20
2022-08-25T00:50:06.840Z,13.30
2022-08-25T00:51:17.136Z,13.40
2022-08-25T00:52:25.420Z,14.30
2022-08-25T00:53:30.353Z,15.50
2022-08-25T00:54:46.084Z,16.00
2022-08-25T00:55:49.535Z,15.90
2022-08-25T00:56:52.583Z,13.90
2022-08-25T00:58:00.605Z,16.20
2022-08-25T00:59:06.196Z,12.80
2022-08-25T01:00:17.198Z,14.10
2022-08-25T01:01:21.134Z,13.90
2022-08-25T01:02:24.270Z,14.30
2022-08-25T01:03:31.614Z,15.00
2022-08-25T01:04:39.532Z,13.00
2022-08-25T01:05:44.306Z,15.50
2022-08-25T01:06:49.353Z,14.10
2022-08-25T01:07:53.053Z,14.20
2022-08-25T01:09:02.101Z,12.80
2022-08-25T01:10:08.036Z,11.60
2022-08-25T01:11:13.326Z,11.10
2022-08-25T01:12:16.738Z,10.70
2022-08-25T01:13:25.935Z,11.80
2022-08-25T01:14:31.703Z,13.10
2022-08-25T01:15:35.312Z,12.60
2022-08-25T01:16:42.569Z,10.20
2022-08-25T01:17:50.196Z,11.70
2022-08-25T01:19:00.801Z,8.90
2022-08-25T01:20:05.360Z,11.00
2022-08-25T01:21:08.536Z,10.30
2022-08-25T01:22:12.597Z,11.70
2022-08-25T01:23:27.832Z,10.20
2022-08-25T01:24:47.220Z,9.20
2022-08-25T01:26:09.246Z,11.40
2022-08-25T01:27:12.579Z,11.20
2022-08-25T01:28:16.239Z,9.60
2022-08-25T01:29:22.463Z,9.60
2022-08-25T01:30:26.253Z,13.20
2022-08-25T01:31:30.404Z,11.20
2022-08-25T01:32:35.114Z,11.60
2022-08-25T01:33:38.187Z,12.80
2022-08-25T01:34:45.233Z,13.70
2022-08-25T01:35:48.277Z,11.00
2022-08-25T01:36:51.341Z,12.50
2022-08-25T01:37:57.326Z,14.50
2022-08-25T01:39:00.402Z,11.60
2022-08-25T01:40:05.503Z,11.20
2022-08-25T01:41:08.577Z,11.80
2022-08-25T01:42:37.943Z,11.40
2022-08-25T01:43:41.111Z,11.10
2022-08-25T01:44:46.769Z,10.70
2022-08-25T01:45:50.046Z,10.90
2022-08-25T01:46:54.888Z,11.80
2022-08-25T01:47:58.011Z,11.90
2022-08-25T01:49:06.603Z,10.70
2022-08-25T01:50:17.627Z,11.30
2022-08-25T01:51:25.002Z,12.00
2022-08-25T01:52:46.449Z,11.30
2022-08-25T01:53:51.117Z,11.10
2022-08-25T01:54:57.196Z,17.40
2022-08-25T01:56:03.819Z,13.60
2022-08-25T01:57:07.303Z,12.50
2022-08-25T01:58:10.349Z,10.70
2022-08-25T01:59:16.665Z,10.10
2022-08-25T02:00:26.870Z,9.90
2022-08-25T02:01:30.699Z,11.60
2022-08-25T02:02:33.903Z,10.90
2022-08-25T02:03:42.319Z,12.10
2022-08-25T02:04:46.072Z,15.00
2022-08-25T02:05:49.495Z,11.30
2022-08-25T02:06:52.586Z,12.10
2022-08-25T02:07:55.771Z,12.60
2022-08-25T02:09:01.702Z,12.00
2022-08-25T02:10:06.763Z,11.30
2022-08-25T02:11:15.927Z,11.30
2022-08-25T02:12:19.253Z,13.70
2022-08-25T02:13:27.045Z,13.20
2022-08-25T02:14:36.031Z,13.00
2022-08-25T02:15:45.051Z,13.00
2022-08-25T02:16:51.224Z,13.20
2022-08-25T02:17:54.307Z,13.30
2022-08-25T02:18:59.352Z,14.80
2022-08-25T02:20:05.721Z,12.30
2022-08-25T02:21:09.356Z,13.30
2022-08-25T02:22:12.400Z,13.50
2022-08-25T02:23:16.306Z,11.60
2022-08-25T02:24:19.739Z,11.60
2022-08-25T02:25:22.958Z,12.70
2022-08-25T02:26:26.454Z,11.00
2022-08-25T02:27:29.777Z,13.20
2022-08-25T02:28:37.635Z,11.40
2022-08-25T02:29:41.285Z,11.70
2022-08-25T02:30:46.272Z,11.70
2022-08-25T02:31:49.522Z,12.00
2022-08-25T02:32:52.549Z,12.00
2022-08-25T02:33:57.307Z,11.00
2022-08-25T02:35:00.396Z,10.90
2022-08-25T02:36:03.998Z,11.30
2022-08-25T02:37:08.381Z,12.70
2022-08-25T02:38:11.453Z,12.90
2022-08-25T02:39:14.469Z,16.00
2022-08-25T02:40:17.735Z,14.50
2022-08-25T02:41:30.905Z,13.80
2022-08-25T02:42:34.636Z,15.60
2022-08-25T02:43:37.791Z,14.60
2022-08-25T02:44:41.305Z,17.90
2022-08-25T02:45:45.039Z,14.10
2022-08-25T02:46:48.749Z,11.90
2022-08-25T02:47:51.847Z,17.00
2022-08-25T02:48:55.546Z,13.60
2022-08-25T02:49:58.606Z,14.00
2022-08-25T02:51:02.239Z,13.50
2022-08-25T02:52:08.611Z,14.60
2022-08-25T02:53:11.576Z,13.70
2022-08-25T02:54:16.410Z,13.20
2022-08-25T02:55:19.856Z,13.30
2022-08-25T02:56:24.579Z,14.30
2022-08-25T02:57:27.610Z,13.50
2022-08-25T02:58:30.617Z,14.40
2022-08-25T02:59:36.826Z,16.60
2022-08-25T03:00:39.847Z,15.10
2022-08-25T03:01:43.109Z,15.10
2022-08-25T03:02:47.485Z,15.30
2022-08-25T03:03:52.330Z,20.40
2022-08-25T03:04:56.179Z,15.80
2022-08-25T03:06:00.219Z,17.10
2022-08-25T03:07:03.928Z,14.80
2022-08-25T03:08:08.101Z,15.70
2022-08-25T03:09:12.096Z,15.60
2022-08-25T03:10:18.650Z,15.30
2022-08-25T03:11:22.426Z,17.20
2022-08-25T03:12:25.568Z,16.30
2022-08-25T03:13:28.792Z,15.60
2022-08-25T03:14:31.866Z,16.20
2022-08-25T03:15:38.003Z,16.10
2022-08-25T03:16:42.975Z,16.80
2022-08-25T03:17:53.086Z,18.10
2022-08-25T03:18:56.671Z,18.50
2022-08-25T03:20:00.674Z,18.60
2022-08-25T03:21:05.116Z,17.70
2022-08-25T03:22:08.240Z,17.20
2022-08-25T03:23:11.494Z,18.70
2022-08-25T03:24:14.590Z,17.40
2022-08-25T03:25:36.645Z,18.60
2022-08-25T03:26:56.098Z,19.40
2022-08-25T03:27:59.615Z,21.60
2022-08-25T03:29:06.606Z,21.10
2022-08-25T03:30:10.893Z,19.40
2022-08-25T03:31:14.000Z,21.10
2022-08-25T03:32:17.019Z,17.50
2022-08-25T03:33:23.491Z,21.70
2022-08-25T03:34:38.419Z,18.30
2022-08-25T03:35:42.123Z,21.60
2022-08-25T03:36:49.431Z,19.60
2022-08-25T03:37:56.888Z,21.70
2022-08-25T03:39:00.346Z,21.00
2022-08-25T03:40:07.940Z,23.00
2022-08-25T03:41:25.589Z,21.10
2022-08-25T03:42:31.184Z,26.30
2022-08-25T03:43:34.212Z,24.00
2022-08-25T03:44:40.370Z,22.20
2022-08-25T03:45:46.045Z,21.50
2022-08-25T03:46:52.057Z,21.80
2022-08-25T03:47:55.691Z,22.40
2022-08-25T03:49:02.109Z,21.70
2022-08-25T03:50:08.473Z,19.90
2022-08-25T03:51:11.632Z,27.00
2022-08-25T03:52:14.655Z,23.10
2022-08-25T03:53:17.918Z,24.30
2022-08-25T03:54:25.398Z,27.10
2022-08-25T03:55:28.855Z,23.10
2022-08-25T03:56:34.206Z,24.30
2022-08-25T03:57:37.286Z,22.40
2022-08-25T03:58:40.286Z,23.90
2022-08-25T03:59:43.864Z,24.40
2022-08-25T04:00:48.994Z,21.60
2022-08-25T04:01:55.096Z,23.50
2022-08-25T04:02:58.666Z,25.10
2022-08-25T04:04:01.749Z,22.50
2022-08-25T04:05:05.585Z,20.00
2022-08-25T04:06:09.025Z,25.80
2022-08-25T04:07:12.086Z,22.10
2022-08-25T04:08:15.183Z,25.40
2022-08-25T04:09:18.286Z,25.00
2022-08-25T04:10:21.366Z,21.60
2022-08-25T04:11:26.132Z,25.80
2022-08-25T04:12:29.144Z,25.20
2022-08-25T04:13:33.640Z,23.00
2022-08-25T04:14:37.187Z,21.50
2022-08-25T04:15:45.240Z,18.70
2022-08-25T04:16:48.572Z,23.60
2022-08-25T04:17:51.963Z,18.50
2022-08-25T04:18:58.676Z,27.20
2022-08-25T04:20:02.608Z,25.30
2022-08-25T04:21:09.289Z,24.20
2022-08-25T04:22:13.245Z,28.40
2022-08-25T04:23:16.839Z,28.70
2022-08-25T04:24:20.791Z,24.40
2022-08-25T04:25:23.836Z,19.00
2022-08-25T04:26:37.366Z,25.50
2022-08-25T04:27:40.998Z,21.00
2022-08-25T04:28:44.080Z,29.70
2022-08-25T04:29:47.322Z,27.70
2022-08-25T04:30:52.077Z,20.80
2022-08-25T04:31:55.775Z,28.70
2022-08-25T04:32:58.972Z,29.20
2022-08-25T04:34:04.145Z,23.70
2022-08-25T04:35:17.976Z,25.20
2022-08-25T04:36:22.142Z,35.80
2022-08-25T04:37:25.131Z,29.50
2022-08-25T04:38:28.285Z,26.50
2022-08-25T04:39:34.479Z,24.40
2022-08-25T04:40:37.662Z,33.20
2022-08-25T04:41:43.569Z,25.10
2022-08-25T04:42:48.060Z,20.90
2022-08-25T04:43:52.511Z,26.80
2022-08-25T04:44:55.965Z,27.60
2022-08-25T04:45:59.552Z,24.60
2022-08-25T04:47:03.156Z,26.90
2022-08-25T04:48:08.727Z,24.30
2022-08-25T04:49:12.099Z,25.50
2022-08-25T04:50:15.216Z,28.40
2022-08-25T04:51:24.391Z,24.10
2022-08-25T04:52:27.504Z,31.70
2022-08-25T04:53:30.485Z,24.90
2022-08-25T04:54:37.225Z,26.90
2022-08-25T04:55:46.042Z,24.30
2022-08-25T04:56:54.530Z,24.30
2022-08-25T04:58:01.584Z,25.50
2022-08-25T04:59:08.096Z,26.60
2022-08-25T05:00:12.251Z,26.90
2022-08-25T05:01:18.721Z,27.10
2022-08-25T05:02:25.387Z,24.30
2022-08-25T05:03:28.501Z,25.70
2022-08-25T05:04:32.874Z,25.60
2022-08-25T05:05:38.811Z,26.50
2022-08-25T05:06:43.062Z,25.50
2022-08-25T05:07:48.129Z,23.50
2022-08-25T05:08:51.706Z,24.70
2022-08-25T05:09:54.901Z,27.00
2022-08-25T05:10:58.562Z,25.40
2022-08-25T05:12:03.374Z,24.10
2022-08-25T05:13:06.808Z,26.80
2022-08-25T05:14:12.314Z,23.00
2022-08-25T05:15:34.094Z,26.30
2022-08-25T05:16:37.796Z,23.60
2022-08-25T05:17:40.912Z,24.40
2022-08-25T05:18:45.485Z,25.70
2022-08-25T05:19:48.632Z,24.60
2022-08-25T05:20:57.301Z,26.80
2022-08-25T05:22:00.461Z,23.20
2022-08-25T05:23:04.475Z,26.20
2022-08-25T05:24:08.407Z,26.60
2022-08-25T05:25:12.122Z,25.90
2022-08-25T05:26:20.304Z,23.40
2022-08-25T05:27:24.070Z,22.50
2022-08-25T05:28:27.065Z,22.10
2022-08-25T05:29:30.309Z,24.20
2022-08-25T05:30:33.335Z,25.70
2022-08-25T05:31:41.743Z,24.50
2022-08-25T05:32:46.495Z,23.30
2022-08-25T05:33:50.941Z,22.90
2022-08-25T05:34:54.646Z,24.30
2022-08-25T05:35:59.351Z,22.90
2022-08-25T05:37:08.195Z,24.60
2022-08-25T05:39:20.377Z,22.30
2022-08-25T05:40:25.569Z,24.00
2022-08-25T05:41:34.310Z,22.30
2022-08-25T05:42:40.359Z,24.30
2022-08-25T05:43:48.413Z,24.40
2022-08-25T05:44:52.354Z,23.40
2022-08-25T05:45:58.614Z,26.70
2022-08-25T05:47:03.374Z,28.50
2022-08-25T05:48:12.185Z,24.10
2022-08-25T05:49:18.910Z,23.00
2022-08-25T05:50:25.692Z,22.70
2022-08-25T05:51:29.927Z,23.00
2022-08-25T05:52:42.965Z,23.50
2022-08-25T05:53:51.852Z,22.00
2022-08-25T05:54:57.375Z,23.50
2022-08-25T05:56:01.296Z,24.70
2022-08-25T05:57:06.297Z,29.90
2022-08-25T05:58:10.338Z,23.40
2022-08-25T05:59:20.140Z,23.60
2022-08-25T06:00:24.372Z,24.80
2022-08-25T06:01:55.741Z,24.30
2022-08-25T06:03:00.791Z,25.10
2022-08-25T06:04:11.902Z,24.10
2022-08-25T06:05:20.123Z,25.10
2022-08-25T06:06:28.747Z,23.70
2022-08-25T06:07:34.042Z,26.20
2022-08-25T06:08:50.685Z,23.30
2022-08-25T06:10:02.273Z,22.20
2022-08-25T06:11:14.368Z,21.60
2022-08-25T06:12:32.978Z,23.00
2022-08-25T06:13:48.299Z,21.80
2022-08-25T06:15:11.130Z,23.50
2022-08-25T06:18:55.913Z,21.60
2022-08-25T06:20:03.878Z,23.00
2022-08-25T06:21:21.085Z,22.70
2022-08-25T06:22:42.483Z,20.70
2022-08-25T06:24:09.966Z,23.90
2022-08-25T06:25:26.452Z,21.50
2022-08-25T06:26:46.469Z,22.60
2022-08-25T06:28:11.636Z,22.20
2022-08-25T06:29:20.551Z,21.40
2022-08-25T06:30:28.992Z,24.60
2022-08-25T06:32:04.268Z,24.10
2022-08-25T06:33:09.420Z,26.20
2022-08-25T06:34:24.257Z,24.20
2022-08-25T06:35:35.669Z,24.10
2022-08-25T06:37:16.343Z,25.60
2022-08-25T06:40:19.445Z,25.80
2022-08-25T06:41:23.481Z,23.00
2022-08-25T06:42:43.297Z,25.50
2022-08-25T06:44:19.760Z,24.50
2022-08-25T06:45:41.299Z,23.60
2022-08-25T06:46:49.544Z,23.30
2022-08-25T06:47:53.323Z,23.60
2022-08-25T06:49:07.019Z,23.90
2022-08-25T06:50:20.582Z,29.20
2022-08-25T06:51:57.680Z,25.70
2022-08-25T06:55:17.616Z,24.50
2022-08-25T06:57:40.358Z,24.70
2022-08-25T06:59:32.044Z,26.70
2022-08-25T07:01:39.127Z,24.80
2022-08-25T07:03:48.405Z,25.70
2022-08-25T07:05:51.454Z,26.80
2022-08-25T07:14:29.681Z,22.40
2022-08-25T07:15:59.123Z,22.70
2022-08-25T07:17:12.439Z,24.30
2022-08-25T07:18:19.285Z,24.00
2022-08-25T07:19:31.007Z,24.50
2022-08-25T07:20:51.535Z,21.60
2022-08-25T07:21:59.922Z,22.50
2022-08-25T07:23:07.909Z,22.60
2022-08-25T07:24:17.837Z,21.40
2022-08-25T07:29:31.960Z,21.40
2022-08-25T07:31:04.559Z,23.10
2022-08-25T07:32:11.414Z,20.20
2022-08-25T07:33:25.994Z,22.50
2022-08-25T07:34:55.746Z,22.90
2022-08-25T07:36:22.853Z,15.60
2022-08-25T07:37:48.813Z,17.30
2022-08-25T07:39:38.283Z,14.30
2022-08-25T07:41:33.991Z,14.60
2022-08-25T07:42:49.917Z,14.10
2022-08-25T07:43:56.167Z,12.80
2022-08-25T07:45:20.397Z,12.20
2022-08-25T07:46:42.593Z,12.40
2022-08-25T07:48:00.387Z,13.90
2022-08-25T07:49:26.856Z,12.20
2022-08-25T07:51:07.524Z,10.90
2022-08-25T07:52:21.780Z,11.30
2022-08-25T07:53:30.999Z,10.30
2022-08-25T07:54:39.585Z,9.60
2022-08-25T07:55:47.155Z,9.00
2022-08-25T07:56:51.578Z,7.50
2022-08-25T07:58:22.244Z,7.60
2022-08-25T08:00:26.637Z,8.30
2022-08-25T08:02:18.544Z,7.80
2022-08-25T08:04:06.235Z,8.70
2022-08-25T08:05:40.954Z,7.10
2022-08-25T08:07:12.202Z,6.70
2022-08-25T08:10:54.140Z,5.80
2022-08-25T08:12:20.105Z,4.50
2022-08-25T08:13:24.632Z,4.20
2022-08-25T08:14:57.972Z,4.20
2022-08-25T08:16:15.039Z,3.90
2022-08-25T08:17:22.345Z,6.10
2022-08-25T08:18:30.190Z,4.30
2022-08-25T08:19:44.903Z,5.00
2022-08-25T08:20:50.565Z,4.00
2022-08-25T08:21:55.667Z,4.30
2022-08-25T08:23:01.790Z,3.30
2022-08-25T08:24:19.752Z,4.30
2022-08-25T08:25:39.731Z,4.30
2022-08-25T08:26:58.142Z,4.60
2022-08-25T08:28:02.743Z,5.40
2022-08-25T08:29:08.665Z,3.90
2022-08-25T08:30:16.273Z,3.50
2022-08-25T08:31:28.747Z,3.50
2022-08-25T08:34:02.800Z,4.00
2022-08-25T08:35:19.715Z,4.40
2022-08-25T08:36:59.688Z,4.50
2022-08-25T08:38:28.164Z,4.60
2022-08-25T08:39:38.180Z,4.60
2022-08-25T08:42:00.678Z,5.50
2022-08-25T08:43:33.235Z,5.40
2022-08-25T08:45:25.805Z,5.20
2022-08-25T08:47:34.222Z,5.10
2022-08-25T08:49:02.547Z,4.70
2022-08-25T08:50:20.319Z,5.00
2022-08-25T08:51:48.422Z,5.10
2022-08-25T08:53:10.796Z,3.70
2022-08-25T08:54:27.295Z,5.20
2022-08-25T08:55:52.679Z,5.40
2022-08-25T08:57:42.389Z,4.90
2022-08-25T08:59:52.631Z,7.30
2022-08-25T09:01:19.248Z,6.80
2022-08-25T09:02:59.209Z,9.20
2022-08-25T09:04:20.698Z,6.80
2022-08-25T09:05:32.993Z,6.90
2022-08-25T09:06:55.939Z,7.20
2022-08-25T09:08:31.978Z,8.90
2022-08-25T09:10:29.479Z,8.80
2022-08-25T09:12:35.276Z,8.60
2022-08-25T09:21:34.308Z,11.40
2022-08-25T09:28:41.249Z,12.90
2022-08-25T09:30:33.420Z,15.70
2022-08-25T09:31:41.756Z,17.10
2022-08-25T09:33:11.076Z,14.20
2022-08-25T09:34:33.978Z,13.40
2022-08-25T09:35:48.230Z,12.10
2022-08-25T09:36:58.022Z,14.40
2022-08-25T09:38:12.355Z,15.60
2022-08-25T09:39:31.892Z,12.20
2022-08-25T09:41:12.173Z,12.90
2022-08-25T09:42:23.871Z,12.20
2022-08-25T09:43:28.565Z,12.40
2022-08-25T09:44:40.907Z,13.20
2022-08-25T09:46:00.659Z,12.40
2022-08-25T09:47:25.484Z,12.30
2022-08-25T09:48:58.607Z,12.40
2022-08-25T09:50:20.715Z,13.10
2022-08-25T09:51:38.239Z,12.20
2022-08-25T09:53:00.903Z,11.90
2022-08-25T09:54:43.937Z,11.90
2022-08-25T09:56:22.582Z,12.40
2022-08-25T09:57:44.247Z,13.70
2022-08-25T09:59:32.883Z,13.00
2022-08-25T10:01:23.738Z,12.40
2022-08-25T10:02:56.032Z,17.80
2022-08-25T10:04:13.939Z,18.20
2022-08-25T10:05:35.787Z,15.30
2022-08-25T10:10:16.056Z,15.00
2022-08-25T10:14:04.609Z,13.00
2022-08-25T10:15:38.494Z,14.90
2022-08-25T10:17:27.797Z,16.20
2022-08-25T10:18:38.010Z,16.70
2022-08-25T10:19:57.438Z,16.20
2022-08-25T10:21:27.206Z,15.60
2022-08-25T10:23:09.166Z,15.20
2022-08-25T10:24:48.865Z,15.50
2022-08-25T10:26:41.694Z,14.50
2022-08-25T10:28:03.993Z,15.40
2022-08-25T10:29:34.402Z,14.00
2022-08-25T10:31:19.381Z,13.60
2022-08-25T10:32:54.295Z,13.60
2022-08-25T10:34:55.439Z,15.50
2022-08-25T10:36:30.493Z,14.90
2022-08-25T10:37:46.953Z,14.70
2022-08-25T10:38:58.248Z,11.20
2022-08-25T10:40:37.237Z,13.50
2022-08-25T10:42:14.282Z,10.20
2022-08-25T10:44:26.244Z,15.20
2022-08-25T10:46:03.579Z,13.80
2022-08-25T10:47:50.350Z,12.90
2022-08-25T10:49:10.504Z,12.10
2022-08-25T10:50:45.305Z,12.40
2022-08-25T10:52:28.272Z,14.80
2022-08-25T10:54:21.506Z,10.70
2022-08-25T10:55:43.597Z,11.70
2022-08-25T10:57:01.909Z,15.70
2022-08-25T10:58:42.887Z,13.40
2022-08-25T10:59:52.238Z,21.40
2022-08-25T11:01:10.120Z,13.90
2022-08-25T11:02:20.412Z,13.30
2022-08-25T11:03:59.202Z,15.30
2022-08-25T11:05:40.769Z,15.40
2022-08-25T11:06:54.573Z,11.10
2022-08-25T11:08:19.699Z,16.20
2022-08-25T11:09:39.196Z,15.40
2022-08-25T11:11:10.892Z,14.20
2022-08-25T11:12:59.235Z,15.50
2022-08-25T11:16:19.889Z,16.60
2022-08-25T11:18:15.027Z,13.90
2022-08-25T11:19:31.055Z,18.10
2022-08-25T11:20:48.826Z,13.90
2022-08-25T11:22:19.348Z,14.10
2022-08-25T11:25:04.300Z,13.30
2022-08-25T11:26:40.742Z,12.20
2022-08-25T11:28:06.872Z,13.70
2022-08-25T11:30:43.293Z,14.80
2022-08-25T11:32:09.120Z,13.90
2022-08-25T11:33:40.242Z,13.00
2022-08-25T11:34:51.091Z,15.20
2022-08-25T11:36:07.242Z,13.50
2022-08-25T11:37:29.546Z,14.40
2022-08-25T11:39:27.278Z,17.60
2022-08-25T11:41:04.099Z,11.90
2022-08-25T11:43:21.906Z,14.00
2022-08-25T11:45:24.840Z,14.60
2022-08-25T11:46:51.642Z,13.60
2022-08-25T11:48:23.321Z,15.30
2022-08-25T11:49:48.594Z,13.90
2022-08-25T11:51:07.655Z,14.90
2022-08-25T11:52:35.797Z,15.00
2022-08-25T11:53:45.371Z,15.00
2022-08-25T11:54:48.737Z,16.20
2022-08-25T11:55:56.649Z,16.10
2022-08-25T11:57:14.120Z,16.30
2022-08-25T11:58:31.980Z,15.60
2022-08-25T11:59:52.040Z,17.80
2022-08-25T12:00:58.958Z,16.00
2022-08-25T12:02:04.778Z,16.40
2022-08-25T12:03:45.366Z,14.80
2022-08-25T12:04:49.162Z,16.60
2022-08-25T12:06:32.248Z,16.40
2022-08-25T12:08:12.730Z,16.70
2022-08-25T12:09:20.718Z,16.10
2022-08-25T12:10:47.425Z,14.00
2022-08-25T12:11:56.026Z,14.40
2022-08-25T12:13:45.516Z,13.90
2022-08-25T12:15:34.610Z,17.90
2022-08-25T12:17:27.188Z,14.10
2022-08-25T12:18:45.988Z,21.30
2022-08-25T12:19:57.603Z,15.00
2022-08-25T12:21:02.558Z,19.90
2022-08-25T12:22:10.592Z,17.00
2022-08-25T12:23:16.612Z,14.50
2022-08-25T12:24:26.392Z,16.70
2022-08-25T12:25:45.868Z,17.30
2022-08-25T12:26:57.677Z,13.40
2022-08-25T12:28:34.985Z,15.60
2022-08-25T12:29:54.290Z,18.00
2022-08-25T12:31:09.759Z,16.20
2022-08-25T12:32:21.696Z,17.40
2022-08-25T12:33:48.233Z,18.40
2022-08-25T12:34:59.476Z,15.70
2022-08-25T12:36:11.146Z,17.20
2022-08-25T12:37:20.346Z,14.80
2022-08-25T12:38:46.269Z,17.10
2022-08-25T12:40:06.424Z,17.10
2022-08-25T12:41:33.786Z,19.50
2022-08-25T12:42:44.926Z,12.80
2022-08-25T12:43:52.252Z,14.10
2022-08-25T12:45:08.838Z,16.50
2022-08-25T12:46:32.190Z,15.20
2022-08-25T12:47:38.398Z,15.50
2022-08-25T12:48:57.687Z,12.90
2022-08-25T12:50:29.119Z,13.60
2022-08-25T12:52:01.132Z,12.90
2022-08-25T12:53:16.087Z,14.70
2022-08-25T12:54:47.905Z,14.20
2022-08-25T12:56:07.840Z,13.60
2022-08-25T12:57:29.966Z,13.60
2022-08-25T12:59:00.772Z,13.20
2022-08-25T13:01:49.302Z,12.30
2022-08-25T13:03:21.879Z,11.30
2022-08-25T13:04:47.438Z,9.10
2022-08-25T13:06:28.628Z,8.80
2022-08-25T13:08:02.443Z,12.20
2022-08-25T13:09:50.357Z,14.90
2022-08-25T13:11:16.680Z,12.70
2022-08-25T13:12:46.709Z,13.30
2022-08-25T13:13:59.521Z,14.10
2022-08-25T13:15:03.652Z,11.80
2022-08-25T13:16:19.410Z,14.10
2022-08-25T13:17:30.761Z,12.70
2022-08-25T13:18:39.888Z,11.30
2022-08-25T13:19:50.121Z,12.90
2022-08-25T13:21:18.081Z,13.90
2022-08-25T13:22:24.174Z,12.80
2022-08-25T13:23:31.185Z,14.20
2022-08-25T13:24:41.207Z,10.80
2022-08-25T13:25:54.283Z,12.00
2022-08-25T13:27:09.838Z,11.70
2022-08-25T13:28:26.480Z,13.90
2022-08-25T13:29:37.437Z,14.40
2022-08-25T13:30:46.628Z,11.60
2022-08-25T13:31:58.019Z,12.50
2022-08-25T13:33:20.722Z,12.80
2022-08-25T13:34:35.244Z,13.70
2022-08-25T13:35:39.873Z,15.40
2022-08-25T13:37:05.844Z,11.60
2022-08-25T13:38:19.912Z,13.20
2022-08-25T13:39:45.461Z,13.50
2022-08-25T13:40:50.791Z,13.60
2022-08-25T13:41:59.845Z,12.00
2022-08-25T13:43:12.246Z,14.90
2022-08-25T13:44:18.849Z,11.90
2022-08-25T13:45:41.563Z,12.70
2022-08-25T13:46:48.650Z,12.90
2022-08-25T13:48:07.553Z,17.20
2022-08-25T13:49:27.811Z,16.00
2022-08-25T13:50:42.663Z,13.90
2022-08-25T13:51:56.338Z,10.40
2022-08-25T13:53:06.681Z,14.80
2022-08-25T13:54:27.961Z,13.30
2022-08-25T13:55:51.756Z,12.90
2022-08-25T13:57:07.414Z,12.60
2022-08-25T13:58:24.438Z,15.90
2022-08-25T13:59:40.324Z,15.10
2022-08-25T14:00:47.475Z,14.10
2022-08-25T14:01:54.356Z,11.50
2022-08-25T14:03:02.258Z,12.30
2022-08-25T14:04:32.975Z,12.40
2022-08-25T14:05:46.655Z,11.70
2022-08-25T14:07:08.382Z,14.50
2022-08-25T14:08:34.390Z,12.90
2022-08-25T14:09:56.997Z,14.00
2022-08-25T14:11:31.658Z,13.90
2022-08-25T14:12:44.901Z,12.50
2022-08-25T14:14:01.981Z,17.20
2022-08-25T14:15:33.938Z,14.30
2022-08-25T14:17:22.381Z,14.70
2022-08-25T14:18:35.651Z,16.80
2022-08-25T14:20:01.009Z,15.70
2022-08-25T14:21:11.285Z,13.10
2022-08-25T14:22:19.518Z,13.10
2022-08-25T14:23:29.135Z,13.70
2022-08-25T14:24:40.681Z,13.90
2022-08-25T14:25:51.212Z,15.80
2022-08-25T14:26:55.485Z,12.10
2022-08-25T14:28:07.224Z,14.80
2022-08-25T14:29:14.061Z,10.30
2022-08-25T14:30:29.064Z,12.10
2022-08-25T14:31:39.801Z,13.30
2022-08-25T14:32:43.767Z,13.90
2022-08-25T14:33:54.153Z,13.80
2022-08-25T14:35:07.420Z,12.00
2022-08-25T14:36:21.445Z,15.80
2022-08-25T14:37:26.413Z,12.20
2022-08-25T14:38:30.542Z,14.60
2022-08-25T14:39:34.334Z,16.20
2022-08-25T14:40:40.191Z,13.30
2022-08-25T14:41:53.285Z,13.40
2022-08-25T14:43:00.321Z,12.40
2022-08-25T14:44:07.872Z,12.60
2022-08-25T14:45:16.558Z,12.80
2022-08-25T14:46:30.305Z,12.20
2022-08-25T14:47:35.664Z,13.70
2022-08-25T14:48:50.116Z,11.70
2022-08-25T14:49:54.751Z,13.40
2022-08-25T14:51:08.627Z,13.10
2022-08-25T14:52:43.046Z,11.40
2022-08-25T14:53:48.456Z,14.50
2022-08-25T14:54:52.221Z,10.80
2022-08-25T14:55:59.672Z,14.30
2022-08-25T14:57:11.428Z,12.50
2022-08-25T14:58:15.557Z,14.50
2022-08-25T14:59:21.249Z,12.60
2022-08-25T15:00:26.110Z,9.40
2022-08-25T15:01:30.353Z,14.50
2022-08-25T15:02:39.405Z,13.70
2022-08-25T15:03:47.548Z,12.80
2022-08-25T15:04:54.546Z,13.30
2022-08-25T15:06:00.892Z,17.40
2022-08-25T15:07:25.392Z,13.00
2022-08-25T15:08:50.101Z,15.10
2022-08-25T15:09:53.511Z,12.30
2022-08-25T15:10:58.312Z,13.10
2022-08-25T15:12:01.728Z,14.50
2022-08-25T15:13:07.140Z,14.80
2022-08-25T15:14:12.811Z,9.70
2022-08-25T15:15:19.015Z,11.80
2022-08-25T15:16:33.759Z,16.00
2022-08-25T15:17:44.485Z,16.90
2022-08-25T15:18:50.106Z,14.20
2022-08-25T15:19:53.756Z,12.80
2022-08-25T15:20:57.708Z,12.70
2022-08-25T15:22:01.402Z,14.80
2022-08-25T15:23:05.738Z,11.20
2022-08-25T15:24:11.316Z,15.70
2022-08-25T15:25:17.189Z,13.70
2022-08-25T15:26:22.208Z,13.30
2022-08-25T15:27:26.471Z,15.20
2022-08-25T15:28:35.308Z,14.70
2022-08-25T15:29:41.207Z,16.10
2022-08-25T15:30:45.889Z,15.40
2022-08-25T15:31:49.958Z,15.30
2022-08-25T15:32:54.400Z,16.70
2022-08-25T15:34:00.656Z,17.00
2022-08-25T15:35:05.057Z,16.40
2022-08-25T15:36:15.558Z,13.30
2022-08-25T15:37:19.292Z,18.90
2022-08-25T15:38:22.639Z,11.40
2022-08-25T15:39:27.378Z,15.00
2022-08-25T15:40:31.213Z,13.80
2022-08-25T15:41:37.195Z,11.90
2022-08-25T15:42:42.810Z,15.30
2022-08-25T15:43:49.639Z,14.90
2022-08-25T15:44:56.380Z,16.70
2022-08-25T15:45:59.941Z,11.40
2022-08-25T15:47:03.661Z,14.20
2022-08-25T15:48:09.585Z,13.70
2022-08-25T15:49:13.820Z,11.60
2022-08-25T15:50:26.290Z,17.80
2022-08-25T15:51:30.470Z,14.90
2022-08-25T15:52:46.658Z,13.80
2022-08-25T15:53:50.996Z,12.60
2022-08-25T15:54:54.536Z,13.20
2022-08-25T15:55:58.436Z,14.60
2022-08-25T15:57:10.571Z,13.40
2022-08-25T15:58:21.435Z,14.40
2022-08-25T15:59:28.352Z,11.30
2022-08-25T16:00:36.576Z,15.20
2022-08-25T16:01:43.946Z,12.40
2022-08-25T16:02:48.027Z,11.10
2022-08-25T16:03:52.565Z,9.60
2022-08-25T16:04:56.565Z,12.90
2022-08-25T16:06:03.767Z,11.10
2022-08-25T16:07:08.828Z,13.20
2022-08-25T16:08:22.276Z,16.40
2022-08-25T16:09:26.322Z,9.30
2022-08-25T16:10:38.683Z,12.10
2022-08-25T16:11:43.901Z,12.30
2022-08-25T16:12:59.638Z,10.70
2022-08-25T16:14:03.229Z,12.00
2022-08-25T16:15:12.226Z,12.40
2022-08-25T16:16:17.743Z,11.80
2022-08-25T16:17:21.201Z,11.90
2022-08-25T16:18:30.480Z,14.60
2022-08-25T16:19:46.472Z,12.60
2022-08-25T16:20:55.990Z,13.90
2022-08-25T16:22:01.076Z,15.40
2022-08-25T16:23:06.610Z,11.40
2022-08-25T16:24:11.982Z,11.60
2022-08-25T16:25:17.528Z,13.20
2022-08-25T16:26:21.431Z,12.20
2022-08-25T16:27:26.488Z,13.70
2022-08-25T16:28:30.342Z,11.40
2022-08-25T16:29:38.572Z,13.40
2022-08-25T16:30:52.619Z,11.90
2022-08-25T16:31:58.627Z,13.50
2022-08-25T16:33:08.760Z,11.20
2022-08-25T16:34:16.932Z,13.10
2022-08-25T16:35:24.753Z,13.20
2022-08-25T16:36:29.265Z,14.20
2022-08-25T16:37:35.861Z,13.10
2022-08-25T16:38:41.612Z,10.80